Time;durP1;ratioP1;P1;durP2;ratioP2;P2;SDS_P1;SDS_P2;PMS_P1;PMS_P2;Temp;Humidity;BMP_temperature;BMP_pressure;BME280_temperature;BME280_humidity;BME280_pressure;Samples;Min_cycle;Max_cycle;Signal;HPM_P1;HPM_P2
2022/04/16 00:03:58;;;;;;;22.15;17.30;;;;;;;;;;10445979;28;20889;-90
2022/04/16 00:09:00;;;;;;;22.43;18.17;;;;;;;;;;10445387;28;20420;-90
2022/04/16 00:14:03;;;;;;;20.88;17.10;;;;;;;;;;10445565;28;20470;-91
2022/04/16 00:19:05;;;;;;;19.75;16.70;;;;;;;;;;10437904;28;20494;-92
2022/04/16 00:24:08;;;;;;;18.60;15.57;;;;;;;;;;10445704;28;20407;-90
2022/04/16 00:29:12;;;;;;;18.23;14.77;;;;;;;;;;10441831;28;20419;-92
2022/04/16 00:34:14;;;;;;;17.63;14.52;;;;;;;;;;10441912;28;20420;-91
2022/04/16 00:39:16;;;;;;;20.65;15.45;;;;;;;;;;10444619;28;20419;-91
2022/04/16 00:44:20;;;;;;;19.97;16.00;;;;;;;;;;10446325;28;20436;-92
2022/04/16 00:49:22;;;;;;;21.17;15.43;;;;;;;;;;10446176;28;20469;-91
2022/04/16 00:54:24;;;;;;;17.48;15.23;;;;;;;;;;10445343;28;20506;-92
2022/04/16 00:59:28;;;;;;;17.55;15.18;;;;;;;;;;10447032;28;20411;-89
2022/04/16 01:04:30;;;;;;;19.27;14.65;;;;;;;;;;10463237;28;20398;-92
2022/04/16 01:09:33;;;;;;;17.08;14.32;;;;;;;;;;10459995;28;20792;-90
2022/04/16 01:14:38;;;;;;;17.20;14.70;;;;;;;;;;10443240;28;20450;-91
2022/04/16 01:19:41;;;;;;;16.60;13.80;;;;;;;;;;10447161;28;20477;-91
2022/04/16 01:24:47;;;;;;;17.65;14.30;;;;;;;;;;10435741;28;20412;-90
2022/04/16 01:29:50;;;;;;;18.38;14.23;;;;;;;;;;10451799;28;20926;-91
2022/04/16 01:34:52;;;;;;;16.55;14.00;;;;;;;;;;10450246;28;20427;-91
2022/04/16 01:39:56;;;;;;;16.20;14.18;;;;;;;;;;10448970;28;20443;-91
2022/04/16 01:44:59;;;;;;;16.77;14.05;;;;;;;;;;10449250;28;20421;-90
2022/04/16 01:50:01;;;;;;;16.13;13.32;;;;;;;;;;10450283;28;20415;-92
2022/04/16 01:55:06;;;;;;;14.90;13.30;;;;;;;;;;10449625;28;20443;-91
2022/04/16 02:00:09;;;;;;;15.65;13.57;;;;;;;;;;10449993;28;20403;-91
2022/04/16 02:05:12;;;;;;;17.02;14.13;;;;;;;;;;10450829;28;20935;-90
2022/04/16 02:10:16;;;;;;;18.27;13.75;;;;;;;;;;10442191;28;20453;-90
2022/04/16 02:15:18;;;;;;;16.58;14.38;;;;;;;;;;10449282;28;20876;-92
2022/04/16 02:20:20;;;;;;;16.03;13.90;;;;;;;;;;10449913;28;20824;-91
2022/04/16 02:25:25;;;;;;;14.88;13.10;;;;;;;;;;10449551;28;20403;-92
2022/04/16 02:30:30;;;;;;;15.00;13.40;;;;;;;;;;10408472;28;20413;-91
2022/04/16 02:35:32;;;;;;;15.33;13.30;;;;;;;;;;10408135;28;20436;-91
2022/04/16 02:40:35;;;;;;;15.17;13.10;;;;;;;;;;10390496;28;20410;-92
2022/04/16 02:50:56;;;;;;;16.63;13.15;;;;;;;;;;10449001;28;20392;-90
2022/04/16 02:56:00;;;;;;;16.92;13.43;;;;;;;;;;10448136;28;20416;-90
2022/04/16 03:01:02;;;;;;;15.93;12.93;;;;;;;;;;10449494;28;20407;-92
2022/04/16 03:06:04;;;;;;;15.35;13.00;;;;;;;;;;10451364;28;20495;-92
2022/04/16 03:11:07;;;;;;;15.80;13.60;;;;;;;;;;10450137;28;20434;-92
2022/04/16 03:21:29;;;;;;;18.52;13.32;;;;;;;;;;10449730;28;20391;-93
2022/04/16 03:26:32;;;;;;;16.48;12.88;;;;;;;;;;10450041;28;20483;-92
2022/04/16 03:31:34;;;;;;;19.17;13.38;;;;;;;;;;10449566;28;20914;-92
2022/04/16 03:36:36;;;;;;;17.57;13.43;;;;;;;;;;10448672;28;20828;-92
2022/04/16 03:41:40;;;;;;;16.70;13.70;;;;;;;;;;10446919;28;21034;-92
2022/04/16 03:46:42;;;;;;;15.80;12.68;;;;;;;;;;10407384;28;20406;-92
2022/04/16 03:51:44;;;;;;;17.17;12.13;;;;;;;;;;10408110;28;20489;-93
2022/04/16 04:02:07;;;;;;;16.67;12.50;;;;;;;;;;10407483;28;20425;-93
2022/04/16 04:07:09;;;;;;;13.73;11.90;;;;;;;;;;10406117;28;20681;-92
2022/04/16 04:12:12;;;;;;;14.25;12.35;;;;;;;;;;10434485;28;20503;-93
2022/04/16 04:17:15;;;;;;;15.32;12.25;;;;;;;;;;10449282;28;20459;-93
2022/04/16 04:22:18;;;;;;;15.02;12.20;;;;;;;;;;10451763;28;20483;-93
2022/04/16 04:27:21;;;;;;;15.53;11.37;;;;;;;;;;10462204;28;20404;-92
2022/04/16 04:32:23;;;;;;;14.70;11.47;;;;;;;;;;10454849;28;20894;-92
2022/04/16 04:37:25;;;;;;;12.90;11.27;;;;;;;;;;10447165;28;20416;-93
2022/04/16 04:42:30;;;;;;;12.35;10.70;;;;;;;;;;10446576;28;20446;-92
2022/04/16 04:47:32;;;;;;;13.57;11.20;;;;;;;;;;10446841;28;20576;-92
2022/04/16 04:52:36;;;;;;;14.00;11.18;;;;;;;;;;10445802;28;20470;-92
2022/04/16 04:57:39;;;;;;;13.68;11.65;;;;;;;;;;10445995;28;20499;-93
2022/04/16 05:02:42;;;;;;;13.05;11.65;;;;;;;;;;10446386;28;20498;-92
2022/04/16 05:07:45;;;;;;;13.18;11.77;;;;;;;;;;10446180;28;20412;-92
2022/04/16 05:12:48;;;;;;;14.95;12.88;;;;;;;;;;10446353;28;20963;-92
2022/04/16 05:17:50;;;;;;;16.10;12.48;;;;;;;;;;10428983;28;20454;-92
2022/04/16 05:22:52;;;;;;;14.30;12.80;;;;;;;;;;10446610;28;20447;-92
2022/04/16 05:27:56;;;;;;;14.98;12.30;;;;;;;;;;10446049;28;20837;-93
2022/04/16 05:33:02;;;;;;;15.13;11.80;;;;;;;;;;10446574;28;20442;-93
2022/04/16 05:38:05;;;;;;;13.15;11.40;;;;;;;;;;10447663;28;20407;-92
2022/04/16 05:43:08;;;;;;;15.57;11.07;;;;;;;;;;10447455;28;20561;-93
2022/04/16 05:48:10;;;;;;;12.30;11.03;;;;;;;;;;10450167;28;20414;-92
2022/04/16 05:53:14;;;;;;;12.85;11.38;;;;;;;;;;10454578;28;20388;-93
2022/04/16 05:58:18;;;;;;;14.02;10.77;;;;;;;;;;10430088;28;20473;-93
2022/04/16 06:03:21;;;;;;;12.50;11.00;;;;;;;;;;10422046;28;20396;-91
2022/04/16 06:08:23;;;;;;;12.75;11.43;;;;;;;;;;10432389;28;20396;-91
2022/04/16 06:13:26;;;;;;;13.07;10.98;;;;;;;;;;10443510;28;20452;-93
2022/04/16 06:18:29;;;;;;;14.88;12.52;;;;;;;;;;10441859;28;20411;-92
2022/04/16 06:23:31;;;;;;;14.23;12.27;;;;;;;;;;10424860;28;20399;-91
2022/04/16 06:28:35;;;;;;;14.40;12.75;;;;;;;;;;10429293;28;20400;-93
2022/04/16 06:33:37;;;;;;;14.30;12.77;;;;;;;;;;10432198;28;20443;-91
2022/04/16 06:38:40;;;;;;;14.15;12.60;;;;;;;;;;10419546;28;20413;-92
2022/04/16 06:43:43;;;;;;;15.40;13.00;;;;;;;;;;10432415;28;20855;-92
2022/04/16 06:48:45;;;;;;;12.75;10.93;;;;;;;;;;10437129;28;20427;-92
2022/04/16 06:53:47;;;;;;;13.20;9.97;;;;;;;;;;10426685;28;20425;-93
2022/04/16 06:58:50;;;;;;;8.52;7.10;;;;;;;;;;10424396;28;20418;-81
2022/04/16 07:03:53;;;;;;;7.63;6.80;;;;;;;;;;10433404;28;20407;-94
2022/04/16 07:08:55;;;;;;;9.52;7.25;;;;;;;;;;10443098;22;20444;-94
2022/04/16 07:14:00;;;;;;;8.13;7.10;;;;;;;;;;10434093;28;20435;-95
2022/04/16 07:19:02;;;;;;;9.43;7.22;;;;;;;;;;10434045;28;20409;-94
2022/04/16 07:24:04;;;;;;;11.73;7.85;;;;;;;;;;10437423;28;20412;-94
2022/04/16 07:29:07;;;;;;;8.85;7.85;;;;;;;;;;10436690;28;21116;-94
2022/04/16 07:34:09;;;;;;;10.35;8.18;;;;;;;;;;10432052;28;21573;-94
2022/04/16 07:39:15;;;;;;;10.90;7.88;;;;;;;;;;10435025;28;20499;-94
2022/04/16 07:44:18;;;;;;;9.90;8.07;;;;;;;;;;10432313;28;20413;-92
2022/04/16 07:49:20;;;;;;;8.73;7.70;;;;;;;;;;10417494;28;20396;-91
2022/04/16 07:54:22;;;;;;;9.57;7.95;;;;;;;;;;10431044;28;20430;-91
2022/04/16 08:45:37;;;;;;;9.32;7.80;;;;;;;;;;10460149;27;20382;-80
2022/04/16 08:50:39;;;;;;;10.90;8.60;;;;;;;;;;10463025;28;20764;-81
2022/04/16 08:55:41;;;;;;;9.88;7.93;;;;;;;;;;10461782;28;20418;-81
2022/04/16 09:00:44;;;;;;;10.55;8.15;;;;;;;;;;10396559;28;20408;-93
2022/04/16 09:05:46;;;;;;;9.80;7.60;;;;;;;;;;10365795;28;20519;-93
2022/04/16 09:10:50;;;;;;;8.33;7.20;;;;;;;;;;10388899;28;20834;-91
2022/04/16 09:16:03;;;;;;;7.63;6.82;;;;;;;;;;10445555;28;20476;-87
2022/04/16 09:21:12;;;;;;;7.70;6.83;;;;;;;;;;10385635;28;20405;-87
2022/04/16 09:26:14;;;;;;;8.93;8.02;;;;;;;;;;10438124;27;21921;-89
2022/04/16 09:31:17;;;;;;;10.05;7.88;;;;;;;;;;10368149;28;20529;-87
2022/04/16 09:36:24;;;;;;;9.20;7.63;;;;;;;;;;10364455;28;20404;-87
2022/04/16 09:41:31;;;;;;;8.77;7.03;;;;;;;;;;10431049;28;20897;-86
2022/04/16 09:46:36;;;;;;;8.80;6.60;;;;;;;;;;10510381;27;20485;-88
2022/04/16 09:51:42;;;;;;;8.63;6.97;;;;;;;;;;10453427;27;20519;-90
2022/04/16 09:56:46;;;;;;;6.33;5.00;;;;;;;;;;10361075;28;20409;-89
2022/04/16 10:01:49;;;;;;;6.70;5.47;;;;;;;;;;10471085;28;20411;-84
2022/04/16 10:06:51;;;;;;;6.60;4.10;;;;;;;;;;10405592;28;20504;-83
2022/04/16 10:17:29;;;;;;;5.20;3.70;;;;;;;;;;10468111;28;20727;-86
2022/04/16 10:22:31;;;;;;;3.45;3.17;;;;;;;;;;10468083;28;20497;-88
2022/04/16 10:27:40;;;;;;;5.65;3.20;;;;;;;;;;10466316;27;20434;-88
2022/04/16 10:32:53;;;;;;;6.83;3.83;;;;;;;;;;10365349;27;20421;-91
2022/04/16 10:37:55;;;;;;;3.50;3.10;;;;;;;;;;10380882;27;20411;-87
2022/04/16 10:43:00;;;;;;;4.22;3.10;;;;;;;;;;10404567;28;20424;-86
2022/04/16 10:48:04;;;;;;;3.57;2.90;;;;;;;;;;10344616;28;20509;-92
2022/04/16 10:53:06;;;;;;;5.90;3.30;;;;;;;;;;10342287;28;20441;-87
2022/04/16 10:58:08;;;;;;;3.00;2.80;;;;;;;;;;10346019;27;20403;-88
2022/04/16 11:03:13;;;;;;;5.97;3.30;;;;;;;;;;10334972;28;20401;-87
2022/04/16 11:08:15;;;;;;;3.50;3.17;;;;;;;;;;10332060;27;20409;-88
2022/04/16 11:13:18;;;;;;;4.87;3.10;;;;;;;;;;10341741;27;20425;-90
2022/04/16 11:18:21;;;;;;;3.63;2.92;;;;;;;;;;10335704;27;20448;-88
2022/04/16 11:23:26;;;;;;;3.60;2.72;;;;;;;;;;10336294;28;20583;-90
2022/04/16 11:39:17;;;;;;;3.40;2.10;;;;;;;;;;10352427;28;20396;-90
2022/04/16 11:44:34;;;;;;;4.77;2.50;;;;;;;;;;10444048;28;20421;-89
2022/04/16 11:49:41;;;;;;;3.20;2.38;;;;;;;;;;10468851;28;20394;-91
2022/04/16 11:54:43;;;;;;;2.90;2.30;;;;;;;;;;10411731;28;20426;-90
2022/04/16 11:59:45;;;;;;;2.60;2.20;;;;;;;;;;10420465;27;20403;-89
2022/04/16 12:04:51;;;;;;;2.45;2.15;;;;;;;;;;10416225;28;20526;-92
2022/04/16 12:09:53;;;;;;;2.70;2.00;;;;;;;;;;10400711;28;20403;-89
2022/04/16 12:14:56;;;;;;;2.30;2.10;;;;;;;;;;10404645;28;20506;-89
2022/04/16 12:20:02;;;;;;;2.63;1.83;;;;;;;;;;10371536;28;20403;-94
2022/04/16 12:25:15;;;;;;;2.65;2.38;;;;;;;;;;10347262;28;20963;-93
2022/04/16 12:30:24;;;;;;;4.95;2.53;;;;;;;;;;10358802;28;20769;-87
2022/04/16 12:35:29;;;;;;;15.33;5.17;;;;;;;;;;10358355;28;20436;-78
2022/04/16 12:40:33;;;;;;;9.27;3.70;;;;;;;;;;10346511;28;20869;-86
2022/04/16 12:45:35;;;;;;;10.23;4.20;;;;;;;;;;10350902;28;20520;-84
2022/04/16 12:50:41;;;;;;;5.03;3.30;;;;;;;;;;10334291;27;20435;-81
2022/04/16 12:55:43;;;;;;;6.63;3.30;;;;;;;;;;10348782;27;20432;-82
2022/04/16 13:00:48;;;;;;;5.07;3.42;;;;;;;;;;10335441;28;20428;-83
2022/04/16 13:05:52;;;;;;;4.18;3.28;;;;;;;;;;10362581;27;20875;-91
2022/04/16 13:10:54;;;;;;;4.25;3.10;;;;;;;;;;10343163;27;20502;-80
2022/04/16 13:15:56;;;;;;;3.47;2.50;;;;;;;;;;10340247;27;20436;-82
2022/04/16 13:21:04;;;;;;;3.40;2.70;;;;;;;;;;10348256;27;20429;-85
2022/04/16 13:26:06;;;;;;;3.72;3.38;;;;;;;;;;10338776;27;20419;-84
2022/04/16 13:31:09;;;;;;;3.57;3.27;;;;;;;;;;10362003;28;20455;-84
2022/04/16 13:36:13;;;;;;;2.90;2.42;;;;;;;;;;10342934;27;20516;-84
2022/04/16 13:46:34;;;;;;;2.80;2.50;;;;;;;;;;10361263;28;20442;-85
2022/04/16 13:51:37;;;;;;;2.50;1.90;;;;;;;;;;10365158;27;20401;-86
2022/04/16 13:56:40;;;;;;;2.28;1.90;;;;;;;;;;10360319;28;20516;-88
2022/04/16 14:01:42;;;;;;;2.40;2.20;;;;;;;;;;10340554;28;20417;-94
2022/04/16 14:06:46;;;;;;;3.20;2.93;;;;;;;;;;10354500;28;20475;-94
2022/04/16 14:11:48;;;;;;;6.68;3.60;;;;;;;;;;10345812;27;20423;-95
2022/04/16 14:16:50;;;;;;;5.50;3.30;;;;;;;;;;10344283;28;20432;-96
2022/04/16 14:21:54;;;;;;;5.27;2.97;;;;;;;;;;10343433;28;20423;-95
2022/04/16 14:26:56;;;;;;;2.70;1.70;;;;;;;;;;10341936;28;20427;-94
2022/04/16 14:31:58;;;;;;;2.85;2.65;;;;;;;;;;10345672;28;20400;-94
2022/04/16 14:37:01;;;;;;;2.38;2.00;;;;;;;;;;10337562;28;20920;-94
2022/04/16 14:42:04;;;;;;;3.13;2.35;;;;;;;;;;10348641;28;20796;-95
2022/04/16 14:47:07;;;;;;;5.45;2.65;;;;;;;;;;10361072;27;20451;-96
2022/04/16 14:52:11;;;;;;;2.90;2.27;;;;;;;;;;10360799;27;20421;-96
2022/04/16 14:57:14;;;;;;;3.30;3.00;;;;;;;;;;10354001;27;20869;-96
2022/04/16 15:02:16;;;;;;;3.07;2.70;;;;;;;;;;10354151;27;20425;-95
2022/04/16 15:07:19;;;;;;;3.53;2.87;;;;;;;;;;10383661;22;20869;-83
2022/04/16 15:12:22;;;;;;;5.57;3.20;;;;;;;;;;10358375;28;20892;-85
2022/04/16 15:17:24;;;;;;;4.10;3.70;;;;;;;;;;10359129;28;20489;-84
2022/04/16 15:22:27;;;;;;;6.80;5.65;;;;;;;;;;10345077;28;20977;-83
2022/04/16 15:27:30;;;;;;;6.32;5.35;;;;;;;;;;10358881;28;20928;-83
2022/04/16 15:32:31;;;;;;;6.88;5.57;;;;;;;;;;10350870;28;20445;-84
2022/04/16 15:37:34;;;;;;;7.25;5.63;;;;;;;;;;10355590;28;20417;-83
2022/04/16 15:42:36;;;;;;;8.30;5.63;;;;;;;;;;10351689;28;20495;-83
2022/04/16 15:47:39;;;;;;;8.68;6.03;;;;;;;;;;10347898;28;20906;-83
2022/04/16 15:52:42;;;;;;;9.85;6.82;;;;;;;;;;10362451;28;20477;-84
2022/04/16 15:57:44;;;;;;;7.47;6.30;;;;;;;;;;10358073;28;20601;-83
2022/04/16 16:02:46;;;;;;;7.82;5.93;;;;;;;;;;10357244;28;20399;-83
2022/04/16 16:07:49;;;;;;;6.97;5.90;;;;;;;;;;10355623;28;20417;-83
2022/04/16 16:12:51;;;;;;;6.10;5.50;;;;;;;;;;10345063;28;20427;-82
2022/04/16 16:17:53;;;;;;;6.23;5.63;;;;;;;;;;10357047;28;20461;-82
2022/04/16 16:22:58;;;;;;;5.07;4.15;;;;;;;;;;10346662;28;20415;-84
2022/04/16 16:28:00;;;;;;;4.40;4.00;;;;;;;;;;10355824;28;20419;-83
2022/04/16 16:33:02;;;;;;;4.40;4.00;;;;;;;;;;10360584;28;20433;-83
2022/04/16 16:38:06;;;;;;;5.35;4.75;;;;;;;;;;10367797;28;20420;-84
2022/04/16 16:43:08;;;;;;;5.05;4.55;;;;;;;;;;10361425;28;21033;-83
2022/04/16 16:48:09;;;;;;;4.90;4.32;;;;;;;;;;10359911;28;20421;-82
2022/04/16 16:53:13;;;;;;;6.00;4.80;;;;;;;;;;10361119;28;20426;-83
2022/04/16 16:58:14;;;;;;;7.83;5.17;;;;;;;;;;10354645;28;20967;-82
2022/04/16 17:08:37;;;;;;;5.80;5.10;;;;;;;;;;10371863;28;20409;-83
2022/04/16 17:13:39;;;;;;;6.60;5.90;;;;;;;;;;10362549;28;20447;-83
2022/04/16 17:18:40;;;;;;;7.43;5.90;;;;;;;;;;10371301;28;20829;-83
2022/04/16 17:23:45;;;;;;;8.68;6.10;;;;;;;;;;10374369;28;20397;-84
2022/04/16 17:28:47;;;;;;;8.60;7.18;;;;;;;;;;10362424;28;20808;-83
2022/04/16 17:33:49;;;;;;;10.15;7.70;;;;;;;;;;10386464;28;20427;-83
2022/04/16 17:38:52;;;;;;;9.25;8.23;;;;;;;;;;10382457;28;20490;-82
2022/04/16 17:43:54;;;;;;;8.25;7.45;;;;;;;;;;10381379;28;20781;-83
2022/04/16 17:48:56;;;;;;;10.80;7.90;;;;;;;;;;10384141;28;20407;-81
2022/04/16 17:53:59;;;;;;;16.27;10.63;;;;;;;;;;10367141;28;20459;-82
2022/04/16 17:59:01;;;;;;;14.52;9.52;;;;;;;;;;10382668;28;20492;-82
2022/04/16 18:04:04;;;;;;;13.45;10.25;;;;;;;;;;10379622;28;20571;-84
2022/04/16 18:09:08;;;;;;;11.48;10.25;;;;;;;;;;10379572;28;20444;-84
2022/04/16 18:14:09;;;;;;;12.63;10.38;;;;;;;;;;10370292;28;20431;-83
2022/04/16 18:19:12;;;;;;;11.83;9.83;;;;;;;;;;10360396;28;20556;-84
2022/04/16 18:24:17;;;;;;;9.80;8.45;;;;;;;;;;10365331;28;20409;-84
2022/04/16 18:29:21;;;;;;;9.27;8.27;;;;;;;;;;10360766;28;20407;-83
2022/04/16 18:34:24;;;;;;;10.70;9.40;;;;;;;;;;10359973;28;20438;-82
2022/04/16 18:39:27;;;;;;;10.93;9.80;;;;;;;;;;10366358;28;20426;-84
2022/04/16 18:44:29;;;;;;;10.15;9.02;;;;;;;;;;10370799;28;20950;-84
2022/04/16 18:49:32;;;;;;;6.88;5.60;;;;;;;;;;10368060;28;20450;-84
2022/04/16 18:54:37;;;;;;;5.15;4.63;;;;;;;;;;10362973;28;20512;-84
2022/04/16 18:59:39;;;;;;;5.00;2.97;;;;;;;;;;10355550;28;20496;-84
2022/04/16 19:10:02;;;;;;;3.47;2.07;;;;;;;;;;10367551;28;20581;-85
2022/04/16 19:15:04;;;;;;;2.88;2.38;;;;;;;;;;10369703;28;20459;-85
2022/04/16 19:20:07;;;;;;;2.13;1.93;;;;;;;;;;10367879;28;20514;-85
2022/04/16 19:25:11;;;;;;;1.17;1.08;;;;;;;;;;10381226;28;20401;-84
2022/04/16 19:30:12;;;;;;;2.65;1.30;;;;;;;;;;10379857;28;20897;-85
2022/04/16 19:35:14;;;;;;;2.10;1.07;;;;;;;;;;10377073;28;20888;-85
2022/04/16 19:40:18;;;;;;;0.90;0.90;;;;;;;;;;10377757;28;20508;-85
2022/04/16 19:45:20;;;;;;;0.90;0.90;;;;;;;;;;10379673;28;20503;-85
2022/04/16 19:50:22;;;;;;;1.40;0.90;;;;;;;;;;10372404;28;20498;-85
2022/04/16 19:55:25;;;;;;;2.92;1.00;;;;;;;;;;10368185;28;20421;-85
2022/04/16 20:00:31;;;;;;;2.03;0.70;;;;;;;;;;10372782;28;20426;-85
2022/04/16 20:05:34;;;;;;;1.45;0.60;;;;;;;;;;10372543;28;20489;-85
2022/04/16 20:10:44;;;;;;;1.10;0.60;;;;;;;;;;10374388;28;20883;-85
2022/04/16 20:15:46;;;;;;;2.17;1.10;;;;;;;;;;10370169;28;20457;-84
2022/04/16 20:20:48;;;;;;;0.98;0.70;;;;;;;;;;10365445;28;20427;-85
2022/04/16 20:25:52;;;;;;;1.65;1.02;;;;;;;;;;10370660;28;20482;-85
2022/04/16 20:30:55;;;;;;;1.20;1.00;;;;;;;;;;10363545;28;20881;-85
2022/04/16 20:35:59;;;;;;;1.00;0.52;;;;;;;;;;10367939;28;20419;-85
2022/04/16 20:46:22;;;;;;;0.80;0.60;;;;;;;;;;10363075;28;20431;-84
2022/04/16 20:56:45;;;;;;;2.20;0.90;;;;;;;;;;10366096;28;20497;-85
2022/04/16 21:01:51;;;;;;;0.70;0.60;;;;;;;;;;10360953;28;20498;-84
2022/04/16 21:06:54;;;;;;;2.08;0.70;;;;;;;;;;10361262;28;20962;-85
2022/04/16 21:11:57;;;;;;;1.90;0.85;;;;;;;;;;10367840;28;20925;-86
2022/04/16 21:17:00;;;;;;;1.48;0.70;;;;;;;;;;10373265;28;20427;-86
2022/04/16 21:22:02;;;;;;;1.27;0.80;;;;;;;;;;10362984;28;20423;-85
2022/04/16 21:27:05;;;;;;;2.75;1.40;;;;;;;;;;10360761;28;20415;-86
2022/04/16 21:32:08;;;;;;;1.60;1.00;;;;;;;;;;10357581;28;20913;-85
2022/04/16 21:37:09;;;;;;;1.40;1.20;;;;;;;;;;10362016;28;20429;-86
2022/04/16 21:42:13;;;;;;;1.92;1.23;;;;;;;;;;10363177;28;21107;-86
2022/04/16 21:47:16;;;;;;;1.87;1.20;;;;;;;;;;10366264;28;20526;-87
2022/04/16 21:52:17;;;;;;;3.80;1.80;;;;;;;;;;10370563;28;20667;-85
2022/04/16 21:57:21;;;;;;;1.67;1.52;;;;;;;;;;10372197;28;20513;-87
2022/04/16 22:02:22;;;;;;;2.97;2.10;;;;;;;;;;10380101;28;20410;-87
2022/04/16 22:07:27;;;;;;;2.95;2.05;;;;;;;;;;10381858;28;20778;-87
2022/04/16 22:12:31;;;;;;;4.07;2.33;;;;;;;;;;10378796;28;20482;-85
2022/04/16 22:17:32;;;;;;;3.00;2.00;;;;;;;;;;10378962;28;20768;-86
2022/04/16 22:22:34;;;;;;;2.70;2.00;;;;;;;;;;10380941;28;20417;-86
2022/04/16 22:27:38;;;;;;;2.35;1.98;;;;;;;;;;10376965;28;20418;-86
2022/04/16 22:32:42;;;;;;;2.40;1.85;;;;;;;;;;10379872;28;20786;-87
2022/04/16 22:43:15;;;;;;;2.65;2.08;;;;;;;;;;10381289;28;20406;-87
2022/04/16 22:48:17;;;;;;;2.55;1.73;;;;;;;;;;10377023;28;20774;-87
2022/04/16 22:53:19;;;;;;;2.60;1.70;;;;;;;;;;10380700;28;20483;-86
2022/04/16 22:58:23;;;;;;;2.63;1.60;;;;;;;;;;10377395;28;20419;-87
2022/04/16 23:03:26;;;;;;;3.78;1.73;;;;;;;;;;10372599;28;20401;-87
2022/04/16 23:08:28;;;;;;;2.40;1.60;;;;;;;;;;10377927;28;20910;-86
2022/04/16 23:13:31;;;;;;;2.78;1.58;;;;;;;;;;10374301;28;20847;-87
2022/04/16 23:18:33;;;;;;;2.15;1.80;;;;;;;;;;10380817;28;20634;-87
2022/04/16 23:23:36;;;;;;;1.98;1.63;;;;;;;;;;10378794;28;20416;-87
2022/04/16 23:28:39;;;;;;;3.85;1.60;;;;;;;;;;10379732;28;20409;-87
2022/04/16 23:33:41;;;;;;;2.60;1.60;;;;;;;;;;10376769;28;20476;-87
2022/04/16 23:38:43;;;;;;;3.83;1.75;;;;;;;;;;10378982;28;20393;-87
2022/04/16 23:46:54;;;;;;;2.83;1.60;;;;;;;;;;10378243;28;20413;-87
2022/04/16 23:49:08;;;;;;;2.67;1.80;;;;;;;;;;10375834;28;20403;-87
2022/04/16 23:54:10;;;;;;;3.60;2.00;;;;;;;;;;10378042;28;20493;-87
2022/04/16 23:59:14;;;;;;;3.45;1.90;;;;;;;;;;10376391;28;20819;-87
